Неизвестная ошибка (Warning): строка 43 файла /metar/Service/MetarService.php
Описание:
file_get_contents(https://www.aviationweather.gov/adds/metars/?station_ids=UNKL&std_trans=standard&chk_metars=on&hoursStr=most+recent+only&submitmet=Submit): Failed to open stream: HTTP request failed! HTTP/1.1 403 Forbidden
Трассировка:
 #1 metar/Service/MetarService.php, line=43, function=file_get_contents()
  #2 metar/Service/MetarService.php, line=18, function=getFromAviationweatherGov()
   #3 metar/index.php, line=30, function=getMetarString()
    #4 index.php, line=1, function=include()
Погода для параплана Кемерово под Лысую гору

Погода METAR - Красноярск

Кемерово, Абакан, Красноярск, Новосибирск
Код METAR: UNKL 190853Z 04001MPS 9999 TS SCT044CB 24/19 Q0998 R29/290055 NOSIG RMK QFE724

Погода - Сейчас

Время: 2024-07-19 15:53, местное
Направление ветра: Северо-восток (40°)
Скорость ветра: 1 м/с
Видимость:
Температура: 24°C
Точка росы: 19°C
Атмосферное давление: 998 гПа

Архив погоды

Время, местное Направление Скорость, м/с Температура, °C Точка росы, °C Давление, гПа
2024-07-19 15:53 СВ (40°) 1 24 19 998
2024-07-18 23:00 ЗСЗ (290°) 4 23 21 1001
2024-07-17 11:00 В (80°) 2 24 18 1006
2024-07-17 04:30 Штиль 0 15 15 1006
2024-07-16 07:00 Штиль 0 19 16 1009
2024-07-14 17:00 С (360°) 3 28 14 1006
2024-07-11 20:30 ЗЮЗ (250°) 2 21 13 1008
2024-07-11 15:30 ЗЮЗ (250°) 3 21 13 1009
2024-07-10 20:00 СЗ (300°) 3 20 15 1009
2024-07-10 11:00 ЗЮЗ (250°) 4 20 13 1009
2024-07-10 10:00 З (270°) 4 20 13 1009
2024-07-04 21:00 ЮЗ (210°) 2 20 16 1006
2024-07-02 17:30 ЮВ (120°) 5 27 17 1001
2024-07-01 12:30 З (280°) 4 27 16 1002
2024-06-29 22:00 ЮЗ (220°) 1 22 18 1004
2024-06-29 16:00 В (90°) 5 34 15 1004
2024-06-28 21:30 ЮЗ (230°) 2 24 18 1007
2024-06-28 15:00 ВСВ (70°) 3 32 17 1008
2024-06-26 19:30 Переменный 1 29 14 1009
2024-06-26 17:30 СВ (50°) 2 29 13 1009
2024-06-25 19:00 ЮВ (120°) 5 27 12 1008
2024-06-22 04:30 ЗСЗ (290°) 1 13 12 1006
2024-06-21 17:00 ЮЮВ (150°) 3 21 9 1009
2024-06-21 00:30 Штиль 0 4 4 1013
2024-06-20 22:30 Штиль 0 6 5 1013
2024-06-20 05:30 ЗЮЗ (250°) 4 11 6 1008
2024-06-15 15:00 З (280°) 3 29 12 1009
2024-06-12 13:00 ЮВ (130°) 5 24 9 1012
2024-06-08 07:30 Штиль 0 15 15 1003
2024-06-07 22:30 ВЮВ (110°) 3 14 14 1004
2024-06-06 05:00 Штиль 0 1 1 1013
2024-06-06 01:00 Штиль 0 4 1 1016
2024-06-05 16:00 З (280°) 6 12 -4 1017
2024-06-05 11:00 ЗСЗ (290°) 8 12 -1 1017
2024-06-03 15:00 ЗЮЗ (260°) 5 19 0 1010
2024-06-01 12:30 СЗ (300°) 2 10 -3 1023
2024-05-31 06:00 Переменный 1 4 4 1016
2024-05-30 22:30 Переменный 1 4 2 1019
2024-05-30 13:30 Ю (190°) 4, порывы до 9 8 -1 1018
2024-05-29 22:00 СЗ (300°) 5 8 5 1010
2024-05-29 05:30 Ю (180°) 3 3 2 1013
2024-05-28 04:00 ЗЮЗ (260°) 3 7 4 1010
2024-05-26 12:00 Переменный 1 11 5 1012
2024-05-25 16:00 С (350°) 3 20 11 1009
2024-05-24 12:30 ЮЗ (220°) 5, порывы до 10 22 7 1014
2024-05-23 19:30 ЗЮЗ (260°) 2 18 8 1015
2024-05-23 09:00 ЗЮЗ (260°) 3 14 9 1015
2024-05-22 22:30 ЮЗ (220°) 3 11 11 1014